Time;durP1;ratioP1;P1;durP2;ratioP2;P2;SDS_P1;SDS_P2;PMS_P1;PMS_P2;Temp;Humidity;BMP_temperature;BMP_pressure;BME280_temperature;BME280_humidity;BME280_pressure;Samples;Min_cycle;Max_cycle;Signal;HPM_P1;HPM_P2
2021/12/04 00:00:24;;;;;;;0.20;0.20;;;;;;;12.14;99.63;98219.66;5086221;28;20035;-71
2021/12/04 00:02:50;;;;;;;0.00;0.00;;;;;;;12.14;100.00;98217.78;5089952;28;20031;-72
2021/12/04 00:05:18;;;;;;;0.00;0.00;;;;;;;12.14;100.00;98219.66;5093598;28;20419;-72
2021/12/04 00:07:43;;;;;;;0.00;0.00;;;;;;;12.11;100.00;98218.41;5093649;28;20036;-74
2021/12/04 00:10:09;;;;;;;0.10;0.10;;;;;;;12.04;100.00;98207.31;5092874;28;20605;-72
2021/12/04 00:12:35;;;;;;;0.00;0.00;;;;;;;12.00;100.00;98190.28;5091298;28;20035;-74
2021/12/04 00:15:02;;;;;;;0.00;0.00;;;;;;;12.09;100.00;98214.44;5079612;28;20028;-75
2021/12/04 00:17:28;;;;;;;0.00;0.00;;;;;;;12.08;100.00;98210.19;5074324;28;20103;-75
2021/12/04 00:19:54;;;;;;;0.00;0.00;;;;;;;11.99;100.00;98200.19;5078943;28;20112;-72
2021/12/04 00:22:20;;;;;;;0.00;0.00;;;;;;;11.99;99.80;98192.16;5080341;28;20085;-73
2021/12/04 00:24:45;;;;;;;0.00;0.00;;;;;;;12.03;99.97;98202.28;5089471;28;20065;-75
2021/12/04 00:27:11;;;;;;;0.00;0.00;;;;;;;11.99;100.00;98200.19;5072769;28;20060;-74
2021/12/04 00:29:36;;;;;;;0.00;0.00;;;;;;;12.06;99.48;98207.00;5086612;28;20043;-74
2021/12/04 00:32:10;;;;;;;0.00;0.00;;;;;;;12.01;99.67;98194.50;5092353;28;20024;-75
2021/12/04 00:34:40;;;;;;;0.00;0.00;;;;;;;12.01;99.64;98198.00;5074110;28;20043;-76
2021/12/04 00:50:31;;;;;;;0.00;0.00;;;;;;;11.86;100.00;98168.88;5071834;28;20043;-75
2021/12/04 00:52:57;;;;;;;0.00;0.00;;;;;;;11.82;100.00;98167.91;5056686;28;20029;-75
2021/12/04 00:55:22;;;;;;;0.00;0.00;;;;;;;11.83;100.00;98180.22;5086716;28;20482;-76
2021/12/04 00:57:48;;;;;;;0.00;0.00;;;;;;;11.81;100.00;98169.00;5055520;28;20498;-73
2021/12/04 01:00:14;;;;;;;0.03;0.03;;;;;;;11.82;100.00;98168.69;5084856;28;20097;-75
2021/12/04 01:02:42;;;;;;;0.00;0.00;;;;;;;11.81;100.00;98177.81;5056296;28;20028;-76
2021/12/04 01:05:08;;;;;;;0.00;0.00;;;;;;;11.81;100.00;98171.69;5092088;28;20111;-76
2021/12/04 01:07:34;;;;;;;0.00;0.00;;;;;;;11.75;100.00;98176.34;5078702;28;20712;-75
2021/12/04 01:10:00;;;;;;;0.00;0.00;;;;;;;11.83;100.00;98193.59;5092567;28;20028;-77
2021/12/04 01:12:26;;;;;;;0.00;0.00;;;;;;;11.85;100.00;98189.53;5091385;28;20032;-76
2021/12/04 01:14:51;;;;;;;0.03;0.03;;;;;;;11.83;100.00;98170.28;5079221;28;20050;-73
2021/12/04 01:17:17;;;;;;;0.00;0.00;;;;;;;11.93;100.00;98182.63;5086509;28;20016;-71
2021/12/04 01:19:42;;;;;;;0.00;0.00;;;;;;;11.92;100.00;98180.25;5070592;28;20035;-73
2021/12/04 01:22:08;;;;;;;0.00;0.00;;;;;;;11.90;100.00;98166.38;5063182;28;20024;-73
2021/12/04 01:24:33;;;;;;;0.00;0.00;;;;;;;11.97;100.00;98164.09;5073857;28;20032;-71
2021/12/04 01:26:59;;;;;;;0.00;0.00;;;;;;;11.98;100.00;98163.00;5083091;28;20025;-72
2021/12/04 01:29:24;;;;;;;0.43;0.43;;;;;;;12.06;99.69;98170.28;5080530;28;20106;-73
2021/12/04 01:31:50;;;;;;;0.00;0.00;;;;;;;12.09;99.73;98166.19;5090653;28;20506;-73
2021/12/04 01:34:15;;;;;;;0.00;0.00;;;;;;;12.06;99.29;98150.72;5068864;28;20047;-72
2021/12/04 01:36:41;;;;;;;0.00;0.00;;;;;;;12.15;98.86;98154.25;5062940;28;20126;-72
2021/12/04 01:39:08;;;;;;;0.00;0.00;;;;;;;12.15;98.98;98149.66;5079989;28;20032;-74
2021/12/04 01:41:34;;;;;;;0.00;0.00;;;;;;;12.00;99.08;98128.66;5078189;28;20032;-75
2021/12/04 01:44:03;;;;;;;0.00;0.00;;;;;;;12.13;98.36;98165.28;5064831;28;20107;-75
2021/12/04 01:46:29;;;;;;;0.00;0.00;;;;;;;12.22;98.66;98172.56;5072513;28;20523;-71
2021/12/04 01:48:55;;;;;;;0.00;0.00;;;;;;;12.25;97.96;98170.06;5085442;28;20103;-73
2021/12/04 01:51:21;;;;;;;0.00;0.00;;;;;;;12.27;97.89;98181.28;5072500;28;20467;-73
2021/12/04 01:53:47;;;;;;;0.00;0.00;;;;;;;12.29;97.42;98189.00;5078493;28;20502;-72
2021/12/04 01:56:13;;;;;;;0.00;0.00;;;;;;;12.30;97.05;98175.31;5087051;28;20028;-72
2021/12/04 01:58:41;;;;;;;0.00;0.00;;;;;;;12.13;96.98;98167.16;5074329;28;20035;-72
2021/12/04 02:01:08;;;;;;;0.00;0.00;;;;;;;12.24;96.52;98159.66;5090271;28;20417;-71
2021/12/04 02:03:33;;;;;;;0.00;0.00;;;;;;;12.28;95.48;98176.69;5089332;28;20032;-73
2021/12/04 02:05:59;;;;;;;0.00;0.00;;;;;;;12.25;93.71;98182.69;5091549;28;20034;-73
2021/12/04 02:08:25;;;;;;;0.00;0.00;;;;;;;12.19;92.56;98184.69;5072354;28;20027;-74
2021/12/04 02:10:54;;;;;;;0.00;0.00;;;;;;;12.14;91.16;98193.66;5080506;28;20028;-74
2021/12/04 02:13:21;;;;;;;0.00;0.00;;;;;;;12.01;89.76;98171.22;5071109;28;20103;-73
2021/12/04 02:15:47;;;;;;;0.22;0.22;;;;;;;11.91;89.02;98163.38;5064520;28;20063;-72
2021/12/04 02:18:14;;;;;;;0.08;0.08;;;;;;;11.81;87.46;98159.06;5089901;28;20077;-73
2021/12/04 02:20:40;;;;;;;0.15;0.15;;;;;;;11.67;86.97;98139.63;5059740;28;20039;-70
2021/12/04 02:23:08;;;;;;;0.40;0.40;;;;;;;11.60;87.18;98155.31;5068091;28;20028;-72
2021/12/04 02:25:34;;;;;;;2.53;0.93;;;;;;;11.49;87.05;98136.03;5080835;28;20038;-73
2021/12/04 02:28:02;;;;;;;0.30;0.30;;;;;;;11.49;87.11;98154.75;5076537;28;20060;-73
2021/12/04 02:30:32;;;;;;;0.22;0.22;;;;;;;11.44;87.06;98153.00;5090104;28;20483;-69
2021/12/04 02:32:58;;;;;;;0.50;0.50;;;;;;;11.29;86.01;98145.31;5071456;28;20036;-72
2021/12/04 02:35:25;;;;;;;0.05;0.05;;;;;;;11.27;86.64;98156.31;5063987;28;20052;-72
2021/12/04 02:37:51;;;;;;;0.13;0.13;;;;;;;11.15;85.87;98138.09;5073371;28;20025;-71
2021/12/04 02:40:21;;;;;;;0.30;0.30;;;;;;;11.13;85.56;98131.47;5070581;28;20031;-71
2021/12/04 02:42:47;;;;;;;5.57;1.33;;;;;;;11.03;86.46;98137.84;5073158;28;20028;-72
2021/12/04 02:45:13;;;;;;;0.10;0.10;;;;;;;10.97;86.60;98141.72;5090339;28;20036;-72
2021/12/04 02:47:40;;;;;;;0.28;0.28;;;;;;;10.93;86.62;98128.16;5086236;28;20032;-72
2021/12/04 02:50:08;;;;;;;0.10;0.10;;;;;;;10.88;86.60;98130.94;5071918;28;20039;-72
2021/12/04 02:52:35;;;;;;;0.30;0.30;;;;;;;10.86;87.06;98138.47;5085072;28;20577;-70
2021/12/04 02:55:01;;;;;;;0.40;0.40;;;;;;;10.82;87.05;98145.53;5090998;28;20028;-70
2021/12/04 02:57:27;;;;;;;0.45;0.45;;;;;;;10.76;86.71;98128.78;5090309;28;20020;-72
2021/12/04 02:59:53;;;;;;;0.45;0.40;;;;;;;10.77;86.58;98156.34;5090087;28;20035;-70
2021/12/04 03:02:24;;;;;;;0.10;0.10;;;;;;;10.73;86.68;98154.25;5087049;28;20456;-69
2021/12/04 03:04:52;;;;;;;0.00;0.00;;;;;;;10.70;86.63;98157.50;5085543;28;20054;-72
2021/12/04 03:07:18;;;;;;;;;;;;;;;10.79;86.33;98178.19;5071796;28;20028;-71
2021/12/04 03:09:45;;;;;;;0.22;0.22;;;;;;;10.67;86.45;98150.09;5070423;28;19927;-72
2021/12/04 03:12:12;;;;;;;0.00;0.00;;;;;;;10.74;86.49;98168.38;5080242;28;20028;-73
2021/12/04 03:14:38;;;;;;;0.38;0.38;;;;;;;10.73;87.26;98175.63;5074516;28;20036;-69
2021/12/04 03:17:04;;;;;;;0.00;0.00;;;;;;;10.73;86.98;98164.16;5093681;28;20042;-69
2021/12/04 03:19:30;;;;;;;0.00;0.00;;;;;;;10.64;86.88;98156.03;5091629;28;20024;-71
2021/12/04 03:21:56;;;;;;;0.00;0.00;;;;;;;10.71;86.94;98167.09;5093998;28;20479;-70
2021/12/04 03:24:22;;;;;;;0.00;0.00;;;;;;;10.69;87.04;98152.47;5076074;28;20075;-70
2021/12/04 03:26:50;;;;;;;0.00;0.00;;;;;;;10.62;87.24;98142.19;5077635;28;20024;-73
2021/12/04 03:29:21;;;;;;;0.00;0.00;;;;;;;10.69;87.25;98155.94;5072475;28;20102;-74
2021/12/04 03:42:35;;;;;;;0.00;0.00;;;;;;;10.72;85.79;98166.03;5085066;28;20070;-73
2021/12/04 03:45:02;;;;;;;0.10;0.10;;;;;;;10.70;85.47;98162.06;5080152;28;20048;-72
2021/12/04 03:47:29;;;;;;;0.10;0.10;;;;;;;10.68;85.12;98162.38;5074721;28;20036;-73
2021/12/04 03:49:55;;;;;;;0.00;0.00;;;;;;;10.73;85.36;98186.34;5093905;28;20020;-73
2021/12/04 03:52:20;;;;;;;0.00;0.00;;;;;;;10.73;84.95;98186.34;5085229;28;20537;-73
2021/12/04 03:54:46;;;;;;;0.00;0.00;;;;;;;10.70;85.10;98186.13;5075930;28;20090;-72
2021/12/04 03:57:12;;;;;;;0.00;0.00;;;;;;;10.60;85.32;98179.09;5089207;28;20021;-71
2021/12/04 03:59:40;;;;;;;0.17;0.17;;;;;;;10.63;85.18;98204.44;5084574;28;20111;-74
2021/12/04 04:02:09;;;;;;;;;;;;;;;10.65;85.13;98216.44;5093302;28;20031;-77
2021/12/04 04:04:35;;;;;;;0.00;0.00;;;;;;;10.55;85.17;98198.69;5093424;28;19923;-74
2021/12/04 04:07:01;;;;;;;0.10;0.10;;;;;;;10.63;84.67;98220.50;5084271;28;20102;-73
2021/12/04 04:09:27;;;;;;;0.00;0.00;;;;;;;10.57;84.86;98217.16;5076556;28;20036;-74
2021/12/04 04:11:53;;;;;;;0.00;0.00;;;;;;;10.55;85.01;98205.94;5072132;28;20024;-75
2021/12/04 04:14:18;;;;;;;0.00;0.00;;;;;;;10.46;85.10;98207.72;5092754;28;20103;-74
2021/12/04 04:16:44;;;;;;;0.00;0.00;;;;;;;10.50;85.46;98214.06;5092184;28;20031;-74
2021/12/04 04:19:10;;;;;;;0.03;0.03;;;;;;;10.43;85.73;98203.75;5092356;28;20063;-72
2021/12/04 04:21:41;;;;;;;0.00;0.00;;;;;;;10.46;85.91;98216.53;5086826;28;20029;-73
2021/12/04 04:24:12;;;;;;;0.03;0.03;;;;;;;10.32;86.26;98205.78;5085427;28;20043;-74
2021/12/04 04:26:39;;;;;;;0.00;0.00;;;;;;;10.24;86.67;98204.59;5090416;28;20032;-73
2021/12/04 04:29:06;;;;;;;0.00;0.00;;;;;;;10.17;85.97;98211.41;5079938;28;20024;-72
2021/12/04 04:31:33;;;;;;;0.32;0.32;;;;;;;10.17;86.00;98209.53;5085125;28;20067;-74
2021/12/04 04:34:05;;;;;;;0.93;0.93;;;;;;;10.16;86.72;98207.94;5093302;28;20028;-74
2021/12/04 04:39:24;;;;;;;0.15;0.15;;;;;;;10.08;86.33;98204.06;5091365;28;20472;-73
2021/12/04 05:11:43;;;;;;;0.00;0.00;;;;;;;9.53;88.84;98164.63;5032784;28;20048;-76
2021/12/04 05:14:09;;;;;;;0.17;0.17;;;;;;;9.57;89.33;98183.50;5085571;28;20475;-74
2021/12/04 05:16:51;;;;;;;0.00;0.00;;;;;;;9.43;88.95;98173.53;5072956;28;20040;-74
2021/12/04 05:19:29;;;;;;;0.00;0.00;;;;;;;9.42;89.17;98187.19;5075126;28;20122;-75
2021/12/04 05:21:55;;;;;;;0.00;0.00;;;;;;;9.31;89.83;98180.41;5091730;28;20177;-74
2021/12/04 05:24:22;;;;;;;1.90;1.52;;;;;;;9.23;89.44;98181.88;5085946;28;20507;-75
2021/12/04 05:26:47;;;;;;;0.00;0.00;;;;;;;9.21;89.39;98176.03;5090341;28;20286;-72
2021/12/04 05:29:13;;;;;;;0.00;0.00;;;;;;;9.16;90.07;98178.75;5092271;28;20482;-74
2021/12/04 05:31:38;;;;;;;0.17;0.17;;;;;;;9.04;90.35;98182.63;5084061;28;20064;-73
2021/12/04 05:34:04;;;;;;;0.52;0.32;;;;;;;8.90;90.42;98173.75;5072624;28;20025;-74
2021/12/04 05:36:29;;;;;;;0.00;0.00;;;;;;;8.98;90.27;98186.44;5089224;28;20028;-76
2021/12/04 05:38:55;;;;;;;0.30;0.30;;;;;;;8.91;90.70;98186.81;5080721;28;20033;-75
2021/12/04 05:41:20;;;;;;;0.10;0.10;;;;;;;9.02;90.88;98189.34;5073660;28;20029;-76
2021/12/04 05:43:47;;;;;;;0.00;0.00;;;;;;;9.04;90.51;98189.84;5072417;28;20032;-76
2021/12/04 05:46:17;;;;;;;0.38;0.38;;;;;;;8.99;90.11;98190.69;5086012;28;20070;-73
2021/12/04 05:48:49;;;;;;;0.00;0.00;;;;;;;9.01;90.87;98188.56;5072119;28;20048;-74
2021/12/04 05:51:24;;;;;;;0.00;0.00;;;;;;;8.93;90.94;98173.19;5071232;28;20120;-74
2021/12/04 05:56:20;;;;;;;0.00;0.00;;;;;;;8.92;91.63;98200.91;5090603;28;20035;-74
2021/12/04 05:58:47;;;;;;;0.00;0.00;;;;;;;8.90;91.82;98203.88;5075975;28;20066;-74
2021/12/04 06:01:15;;;;;;;0.20;0.20;;;;;;;8.89;92.53;98196.16;5087622;28;20407;-77
2021/12/04 06:03:41;;;;;;;0.43;0.43;;;;;;;8.83;92.80;98194.66;5071875;28;20523;-76
2021/12/04 06:06:06;;;;;;;0.20;0.20;;;;;;;8.90;92.90;98211.06;5053126;28;20032;-76
2021/12/04 06:08:31;;;;;;;0.63;0.63;;;;;;;8.92;93.33;98211.59;5067852;28;20384;-76
2021/12/04 06:10:57;;;;;;;0.00;0.00;;;;;;;8.93;93.15;98211.28;5066766;28;20036;-77
2021/12/04 06:13:24;;;;;;;0.10;0.10;;;;;;;8.86;93.29;98202.88;5051782;28;20412;-75
2021/12/04 06:15:50;;;;;;;0.13;0.13;;;;;;;8.87;94.09;98217.00;5057464;28;20107;-75
2021/12/04 06:18:16;;;;;;;1.15;0.68;;;;;;;8.78;93.78;98203.50;5054019;28;20032;-76
2021/12/04 06:23:26;;;;;;;0.55;0.55;;;;;;;8.81;94.86;98224.25;5052756;28;20036;-79
2021/12/04 06:25:52;;;;;;;0.22;0.22;;;;;;;8.70;95.50;98215.56;5064006;28;20036;-76
2021/12/04 06:28:18;;;;;;;0.40;0.40;;;;;;;8.64;95.51;98212.19;5066905;28;20089;-75
2021/12/04 06:30:44;;;;;;;0.00;0.00;;;;;;;8.62;96.44;98210.88;5054524;28;20028;-76
2021/12/04 06:33:11;;;;;;;0.08;0.08;;;;;;;8.61;96.38;98211.94;5059465;28;20024;-77
2021/12/04 06:35:41;;;;;;;0.60;0.60;;;;;;;8.46;96.58;98195.03;5049558;28;20048;-72
2021/12/04 06:38:11;;;;;;;0.60;0.60;;;;;;;8.55;96.75;98224.53;5065834;28;20107;-74
2021/12/04 06:40:38;;;;;;;0.20;0.20;;;;;;;8.49;96.84;98215.81;5068912;28;20499;-75
2021/12/04 06:43:05;;;;;;;0.10;0.10;;;;;;;8.47;96.63;98211.81;5065916;28;20079;-73
2021/12/04 06:45:33;;;;;;;0.22;0.22;;;;;;;8.39;95.73;98210.53;5065237;28;20040;-73
2021/12/04 06:48:04;;;;;;;0.00;0.00;;;;;;;8.23;96.01;98201.13;5058568;28;20444;-74
2021/12/04 06:53:28;;;;;;;0.17;0.17;;;;;;;8.22;96.99;98224.28;5059903;28;20112;-74
2021/12/04 06:55:53;;;;;;;0.00;0.00;;;;;;;8.16;96.99;98226.19;5068776;28;20050;-76
2021/12/04 06:58:19;;;;;;;0.30;0.30;;;;;;;8.14;96.34;98239.00;5060331;28;20029;-71
2021/12/04 07:00:45;;;;;;;0.20;0.20;;;;;;;8.11;96.98;98249.41;5069863;28;20428;-74
2021/12/04 07:03:10;;;;;;;0.00;0.00;;;;;;;8.09;96.81;98254.22;5067202;28;20111;-72
2021/12/04 07:05:36;;;;;;;0.10;0.10;;;;;;;8.02;96.79;98267.88;5075955;28;20496;-72
2021/12/04 07:08:04;;;;;;;0.03;0.03;;;;;;;8.01;96.37;98264.38;5084045;28;20025;-72
2021/12/04 07:10:29;;;;;;;0.00;0.00;;;;;;;7.94;95.92;98265.78;5073966;28;20635;-73
2021/12/04 07:12:55;;;;;;;0.00;0.00;;;;;;;7.87;96.35;98271.41;5092072;28;20032;-73
2021/12/04 07:15:21;;;;;;;0.10;0.10;;;;;;;7.94;95.88;98292.41;5084117;28;20033;-72
2021/12/04 07:17:46;;;;;;;0.00;0.00;;;;;;;7.86;95.91;98283.16;5056492;28;20090;-73
2021/12/04 07:20:11;;;;;;;0.00;0.00;;;;;;;7.92;95.54;98313.19;5089252;28;20035;-73
2021/12/04 07:22:37;;;;;;;0.10;0.10;;;;;;;7.92;95.84;98316.66;5094530;28;20475;-73
2021/12/04 07:25:04;;;;;;;0.00;0.00;;;;;;;7.87;95.90;98313.22;5076197;28;20028;-73
2021/12/04 07:27:31;;;;;;;0.00;0.00;;;;;;;7.98;96.10;98338.72;5075263;28;20056;-68
2021/12/04 07:29:56;;;;;;;0.00;0.00;;;;;;;7.94;95.51;98332.34;5080367;28;20036;-69
2021/12/04 07:32:25;;;;;;;0.00;0.00;;;;;;;8.05;95.32;98360.50;5092925;28;20536;-72
2021/12/04 07:34:50;;;;;;;0.00;0.00;;;;;;;8.00;95.14;98350.66;5094301;28;20031;-71
2021/12/04 07:37:16;;;;;;;0.00;0.00;;;;;;;8.11;95.46;98364.72;5094011;28;20032;-70
2021/12/04 07:39:41;;;;;;;0.00;0.00;;;;;;;8.17;95.63;98368.94;5079135;28;20035;-70
2021/12/04 07:42:06;;;;;;;0.00;0.00;;;;;;;8.08;95.08;98343.16;5076460;28;20543;-72
2021/12/04 07:44:32;;;;;;;0.00;0.00;;;;;;;8.27;94.89;98361.97;5083009;28;20035;-74
2021/12/04 07:46:57;;;;;;;0.00;0.00;;;;;;;8.32;95.01;98381.38;5068764;28;20389;-73
2021/12/04 07:49:23;;;;;;;0.00;0.00;;;;;;;8.38;94.98;98376.00;5062840;28;20498;-73
2021/12/04 07:51:50;;;;;;;0.00;0.00;;;;;;;8.38;94.85;98379.47;5082361;28;20036;-71
2021/12/04 07:54:16;;;;;;;0.00;0.00;;;;;;;8.44;94.72;98378.34;5080797;28;20043;-72
2021/12/04 07:56:41;;;;;;;0.00;0.00;;;;;;;8.42;94.90;98375.19;5063466;28;20464;-72
2021/12/04 07:59:07;;;;;;;0.10;0.10;;;;;;;8.54;94.49;98385.50;5080511;28;20058;-72
2021/12/04 08:01:32;;;;;;;0.00;0.00;;;;;;;8.51;94.64;98380.75;5082296;28;20031;-76
2021/12/04 08:03:58;;;;;;;0.00;0.00;;;;;;;8.41;95.29;98367.44;5069306;28;20480;-72
2021/12/04 08:06:23;;;;;;;0.00;0.00;;;;;;;8.44;95.02;98372.22;5078135;28;20020;-73
2021/12/04 08:08:49;;;;;;;0.00;0.00;;;;;;;8.47;94.74;98377.03;5056607;28;20032;-73
2021/12/04 08:11:14;;;;;;;0.00;0.00;;;;;;;8.56;95.20;98383.34;5073281;28;20028;-77
2021/12/04 08:13:40;;;;;;;0.00;0.00;;;;;;;8.62;94.80;98394.78;5069078;28;20024;-76
2021/12/04 08:16:05;;;;;;;0.40;0.40;;;;;;;8.61;94.77;98388.63;5092460;28;20036;-76
2021/12/04 08:18:31;;;;;;;0.00;0.00;;;;;;;8.59;94.30;98385.47;5074140;28;20543;-76
2021/12/04 08:20:56;;;;;;;0.00;0.00;;;;;;;8.56;94.71;98379.91;5092349;28;20024;-74
2021/12/04 08:23:22;;;;;;;0.10;0.10;;;;;;;8.63;95.16;98401.72;5067150;28;20047;-74
2021/12/04 08:25:48;;;;;;;0.00;0.00;;;;;;;8.68;94.67;98414.19;5075289;28;20027;-72
2021/12/04 08:28:14;;;;;;;0.10;0.10;;;;;;;8.64;94.42;98412.09;5091939;28;20031;-75
2021/12/04 08:30:40;;;;;;;0.00;0.00;;;;;;;8.65;94.67;98407.53;5090753;28;20028;-76
2021/12/04 08:33:10;;;;;;;0.00;0.00;;;;;;;8.59;94.83;98400.66;5074581;28;20592;-76
2021/12/04 08:35:39;;;;;;;0.05;0.05;;;;;;;8.70;94.56;98414.72;5074773;28;20062;-76
2021/12/04 08:38:06;;;;;;;0.00;0.00;;;;;;;8.72;94.64;98409.91;5075078;28;20028;-76
2021/12/04 08:40:32;;;;;;;0.00;0.00;;;;;;;8.76;94.65;98411.72;5074771;28;20027;-75
2021/12/04 08:42:59;;;;;;;0.00;0.00;;;;;;;8.69;95.02;98389.94;5093152;28;20028;-76
2021/12/04 08:45:26;;;;;;;0.00;0.00;;;;;;;8.79;94.88;98395.16;5073901;28;20032;-78
2021/12/04 08:47:52;;;;;;;0.00;0.00;;;;;;;8.80;94.66;98393.28;5074273;28;20483;-85
2021/12/04 08:50:22;;;;;;;0.52;0.32;;;;;;;8.88;94.38;98392.69;5061624;28;20031;-88
2021/12/04 08:52:48;;;;;;;0.00;0.00;;;;;;;8.90;94.73;98390.53;5073249;28;20028;-89
2021/12/04 08:55:14;;;;;;;0.00;0.00;;;;;;;8.92;93.55;98395.59;5075022;28;20090;-90
2021/12/04 08:57:40;;;;;;;0.00;0.00;;;;;;;8.83;91.92;98390.06;5056782;28;20051;-80
2021/12/04 09:00:09;;;;;;;0.10;0.10;;;;;;;8.87;93.09;98395.63;5062240;28;20036;-78
2021/12/04 09:02:35;;;;;;;0.00;0.00;;;;;;;8.91;92.29;98404.66;5073964;28;20031;-81
2021/12/04 09:05:00;;;;;;;0.00;0.00;;;;;;;8.91;91.86;98402.81;5073959;28;20052;-80
2021/12/04 09:07:26;;;;;;;0.00;0.00;;;;;;;8.85;91.77;98408.44;5074001;28;20032;-78
2021/12/04 09:09:55;;;;;;;0.10;0.10;;;;;;;8.80;91.28;98409.28;5086736;28;20475;-73
2021/12/04 09:12:23;;;;;;;0.10;0.10;;;;;;;8.61;91.98;98388.63;5072917;28;20024;-73
2021/12/04 09:14:50;;;;;;;0.00;0.00;;;;;;;8.72;92.59;98394.69;5092027;28;20032;-74
2021/12/04 09:17:17;;;;;;;0.00;0.00;;;;;;;8.69;92.55;98397.13;5092500;28;20028;-74
2021/12/04 09:19:43;;;;;;;0.00;0.00;;;;;;;8.68;92.12;98392.84;5092255;28;20031;-74
2021/12/04 09:22:15;;;;;;;0.00;0.00;;;;;;;8.63;92.67;98393.72;5072061;28;20031;-76
2021/12/04 09:24:42;;;;;;;0.10;0.10;;;;;;;8.56;92.84;98387.91;5072183;28;20060;-78
2021/12/04 09:27:21;;;;;;;0.15;0.15;;;;;;;8.55;93.00;98388.97;5076158;28;20055;-78
2021/12/04 09:35:17;;;;;;;;;;;;;;;8.56;92.17;98390.56;5112942;28;20039;-80
2021/12/04 10:34:33;;;;;;;0.00;0.00;;;;;;;9.43;89.62;98365.69;5082499;28;20103;-70
2021/12/04 10:37:11;;;;;;;0.00;0.00;;;;;;;9.42;89.54;98348.13;5070825;28;20081;-73
2021/12/04 10:39:37;;;;;;;0.00;0.00;;;;;;;9.53;88.91;98356.81;5070579;28;20068;-73
2021/12/04 10:42:07;;;;;;;0.00;0.00;;;;;;;9.54;88.92;98352.25;5096741;28;20047;-72
2021/12/04 10:44:37;;;;;;;0.00;0.00;;;;;;;9.63;88.33;98355.88;5093344;28;20035;-79
2021/12/04 10:47:08;;;;;;;0.00;0.00;;;;;;;9.68;87.77;98350.47;5063280;28;20028;-81
2021/12/04 10:49:45;;;;;;;0.00;0.00;;;;;;;9.72;87.51;98345.34;5058643;28;20039;-80
2021/12/04 10:52:18;;;;;;;0.00;0.00;;;;;;;9.77;87.70;98332.72;5073179;28;20028;-79
2021/12/04 10:54:50;;;;;;;0.00;0.00;;;;;;;9.85;87.46;98331.28;5090529;28;20064;-78
2021/12/04 11:02:28;;;;;;;0.00;0.00;;;;;;;10.06;86.96;98339.78;5091011;28;20415;-80
2021/12/04 11:05:01;;;;;;;0.00;0.00;;;;;;;10.12;87.50;98339.72;5074401;28;20032;-80
2021/12/04 11:40:29;;;;;;;0.00;0.00;;;;;;;10.69;83.58;98292.31;5098521;28;20422;-81
2021/12/04 11:43:02;;;;;;;0.05;0.05;;;;;;;10.72;83.31;98280.22;5059802;28;20107;-82
2021/12/04 11:45:41;;;;;;;0.00;0.00;;;;;;;10.76;84.88;98272.41;5056135;28;20032;-81
2021/12/04 11:48:06;;;;;;;0.00;0.00;;;;;;;10.81;84.98;98277.66;4162889;28;10000909;-75
2021/12/04 11:50:35;;;;;;;0.00;0.00;;;;;;;10.90;84.70;98281.25;4129515;28;10000950;-75
2021/12/04 11:53:09;;;;;;;0.00;0.00;;;;;;;10.98;84.26;98283.22;5009588;28;20109;-80
2021/12/04 11:55:41;;;;;;;0.05;0.05;;;;;;;10.90;82.05;98273.22;5013500;28;20029;-71
2021/12/04 11:58:25;;;;;;;0.00;0.00;;;;;;;10.96;81.80;98288.09;5006938;28;20022;-77
2021/12/04 12:00:58;;;;;;;0.00;0.00;;;;;;;10.99;82.23;98292.03;4991979;28;20049;-77
2021/12/04 12:03:30;;;;;;;0.00;0.00;;;;;;;10.95;80.93;98294.53;4987474;28;20126;-72
2021/12/04 12:06:03;;;;;;;0.38;0.38;;;;;;;10.89;80.89;98290.34;4979483;28;20054;-72
2021/12/04 12:08:31;;;;;;;0.10;0.10;;;;;;;10.88;81.13;98294.91;5008057;28;20068;-72
2021/12/04 12:11:10;;;;;;;0.03;0.03;;;;;;;10.80;81.39;98303.63;5010914;28;20022;-72
2021/12/04 12:13:37;;;;;;;;;;;;;;;10.76;81.10;98305.28;4990426;28;20092;-73
2021/12/04 12:16:08;;;;;;;0.10;0.10;;;;;;;10.64;81.46;98300.41;4972218;28;19914;-72
2021/12/04 12:18:57;;;;;;;0.52;0.52;;;;;;;10.54;81.60;98308.63;4990340;28;20458;-71
2021/12/04 12:21:51;;;;;;;0.00;0.00;;;;;;;10.52;82.09;98324.16;4996071;28;20023;-73
2021/12/04 12:27:56;;;;;;;0.00;0.00;;;;;;;10.27;83.42;98318.13;5000149;28;20069;-74
2021/12/04 12:36:13;;;;;;;0.30;0.30;;;;;;;10.00;83.69;98340.97;4995924;28;20027;-74
2021/12/04 12:39:04;;;;;;;0.17;0.17;;;;;;;9.94;84.20;98350.13;4996119;28;20494;-74
2021/12/04 12:41:48;;;;;;;0.10;0.10;;;;;;;9.90;84.88;98346.47;4952644;28;20340;-74
2021/12/04 12:44:27;;;;;;;0.00;0.00;;;;;;;9.82;84.81;98347.09;4993343;28;20398;-74
2021/12/04 12:47:00;;;;;;;0.00;0.00;;;;;;;9.74;86.45;98335.97;4974351;28;20034;-74
2021/12/04 12:49:36;;;;;;;0.15;0.08;;;;;;;9.60;87.85;98335.09;4975437;28;20034;-74
2021/12/04 12:52:04;;;;;;;0.40;0.40;;;;;;;9.67;88.03;98353.44;4993393;28;20760;-72
2021/12/04 12:54:50;;;;;;;0.10;0.10;;;;;;;9.59;88.44;98352.19;4992733;28;20465;-72
2021/12/04 12:57:25;;;;;;;0.00;0.00;;;;;;;9.50;89.74;98345.91;5002293;28;20408;-73
2021/12/04 13:14:22;;;;;;;0.22;0.22;;;;;;;9.02;91.18;98334.16;5011063;28;20029;-72
2021/12/04 13:16:52;;;;;;;1.70;0.52;;;;;;;9.09;91.03;98355.16;5011927;28;20096;-72
2021/12/04 13:19:20;;;;;;;0.40;0.30;;;;;;;9.04;91.91;98348.00;5011487;28;20062;-73
2021/12/04 13:21:47;;;;;;;;;;;;;;;9.01;91.20;98351.25;5004894;28;20058;-72
2021/12/04 13:24:15;;;;;;;0.55;0.55;;;;;;;8.93;91.76;98354.50;4985757;28;19910;-72
2021/12/04 13:26:44;;;;;;;0.17;0.17;;;;;;;8.80;91.68;98337.28;4974980;28;20034;-73
2021/12/04 13:29:12;;;;;;;0.50;0.50;;;;;;;8.89;91.92;98356.16;4992464;28;20125;-73
2021/12/04 13:31:38;;;;;;;0.15;0.15;;;;;;;8.77;91.49;98343.19;5011053;28;20060;-72
2021/12/04 13:34:09;;;;;;;0.73;0.73;;;;;;;8.80;91.83;98350.63;4994520;28;20080;-73
2021/12/04 13:36:36;;;;;;;0.10;0.10;;;;;;;8.84;91.64;98357.00;4994603;28;20030;-75
2021/12/04 13:39:07;;;;;;;0.47;0.47;;;;;;;8.80;91.25;98356.75;5002148;28;20129;-75
2021/12/04 13:41:34;;;;;;;0.25;0.25;;;;;;;8.69;91.57;98338.47;4993338;28;20447;-73
2021/12/04 13:44:01;;;;;;;0.30;0.30;;;;;;;8.57;92.24;98326.31;4991993;28;20452;-73
2021/12/04 13:46:27;;;;;;;0.00;0.00;;;;;;;8.67;92.46;98360.09;4992263;28;20022;-73
2021/12/04 13:49:00;;;;;;;0.20;0.20;;;;;;;8.61;92.84;98339.88;4992235;28;20460;-73
2021/12/04 13:51:26;;;;;;;0.17;0.17;;;;;;;8.62;92.59;98357.47;4996377;28;20080;-74
2021/12/04 13:53:52;;;;;;;0.30;0.30;;;;;;;8.54;92.40;98350.84;5011493;28;20448;-74
2021/12/04 13:56:22;;;;;;;0.22;0.22;;;;;;;8.62;92.38;98368.91;5008829;28;20029;-73
2021/12/04 13:58:52;;;;;;;0.20;0.20;;;;;;;8.67;92.16;98369.94;4987928;28;20081;-74
2021/12/04 14:01:18;;;;;;;0.95;0.75;;;;;;;8.51;92.10;98342.63;5002734;28;20033;-74
2021/12/04 14:03:45;;;;;;;2.72;0.88;;;;;;;8.59;91.38;98361.50;5011243;28;20117;-73
2021/12/04 14:06:16;;;;;;;0.00;0.00;;;;;;;8.62;91.50;98366.25;4993786;28;20073;-73
2021/12/04 14:08:55;;;;;;;0.40;0.40;;;;;;;8.61;91.67;98363.88;4991012;28;20096;-74
2021/12/04 14:11:37;;;;;;;0.15;0.15;;;;;;;8.55;91.13;98357.00;4985418;28;20429;-72
2021/12/04 14:14:15;;;;;;;1.38;1.27;;;;;;;8.53;91.26;98353.81;5003013;28;20030;-72
2021/12/04 14:16:42;;;;;;;0.35;0.35;;;;;;;8.60;91.47;98364.94;5011740;28;20052;-72
2021/12/04 14:19:15;;;;;;;0.50;0.50;;;;;;;8.55;91.85;98365.78;5009584;28;20037;-75
2021/12/04 14:21:41;;;;;;;0.17;0.17;;;;;;;8.51;91.93;98363.94;5011548;28;20062;-75
2021/12/04 14:24:07;;;;;;;1.00;1.00;;;;;;;8.47;90.94;98366.34;4989501;28;20068;-75
2021/12/04 14:26:33;;;;;;;0.52;0.52;;;;;;;8.50;91.62;98365.81;4997577;28;20427;-74
2021/12/04 14:28:59;;;;;;;0.20;0.20;;;;;;;8.50;91.92;98360.50;4994722;28;20406;-75
2021/12/04 14:31:24;;;;;;;0.90;0.75;;;;;;;8.43;91.65;98344.78;4974224;28;20035;-75
2021/12/04 14:33:50;;;;;;;1.35;1.25;;;;;;;8.44;91.64;98346.38;4988076;28;20520;-74
2021/12/04 14:36:20;;;;;;;0.32;0.32;;;;;;;8.47;91.82;98353.03;4992925;28;20046;-75
2021/12/04 14:38:47;;;;;;;0.43;0.43;;;;;;;8.40;91.67;98353.34;4992321;28;20065;-74
2021/12/04 14:41:13;;;;;;;0.43;0.43;;;;;;;8.48;91.49;98370.63;4986824;28;20041;-74
2021/12/04 14:43:40;;;;;;;0.85;0.85;;;;;;;8.39;91.55;98353.63;4987037;28;20030;-74
2021/12/04 14:46:10;;;;;;;1.15;1.08;;;;;;;8.43;91.68;98367.97;5010907;28;20053;-74
2021/12/04 14:48:41;;;;;;;5.93;1.23;;;;;;;8.38;92.47;98376.00;4979983;28;20184;-74
2021/12/04 14:51:14;;;;;;;0.45;0.45;;;;;;;8.34;93.13;98378.44;4994836;28;20437;-74